Aviation Digital Data Service (ADDS)

Output produced by METARs form (1422 UTC 24 August 2019)
found at http://www.aviationweather.gov/metar/data/
 
Forecast for: KBAB (BEALE AFB/MARYSV, CA, US)
Text: TAF KBAB 240300Z 2403/2509 VRB06KT 9999 SKC QNH2979INS TX35/2421Z TN18/2412Z LAST NO AMDS AFT 2403 NEXT 2611Z
Forecast period: 0300 UTC 24 August 2019 to 0900 UTC 25 August 2019
Forecast type: FROM: standard forecast or significant change
Winds: variable direction winds at 7 MPH (6 knots; 3.1 m/s)
Visibility: 6 or more miles 10+ km)
Clouds: clear skies
Weather: no significant weather forecast for this period